Hauptseite
METAR-TAF:

METAR-TAF

Flughäfen :

Flughafen Kiel

Kiel, Deutschland

Breite: 54-23N, Länge: 010-10E, Höhe: 31 m

Beobachtung

Neuester Wetterbericht von vor 22 Minuten, um 06:50 UTC
Wind 11 kt aus Süd/Südwest
Temperatur 9°C
Luftfeuchtigkeit 76%
Luftdruck 1022 hPa
Sichtweite 10 km oder mehr
keine Wolken unter 1500 m und keine Kumulonimbus oder Gewitterwolken

METAR: EDHK 070650Z 21011KT CAVOK 09/05 Q1022

Zeit: 09:12 (07:12 UTC)

Prognose

Neuester Wetterbericht von vor 2 Stunden und 12 Minuten, um 05:00 UTC
Gültige Prognose vom 07 um 06 UTC bis 07 um 15 UTC
Wind 10 kt aus Süd/Südwest, Böen bis zu 20 kt
Sichtweite 10 km oder mehr
Leicht bewölkt in der Höhe von 1500 ft
Zeitweise
vom 07 um 09 UTC bis 07 um 15 UTC
Wind 15 kt aus Südwest, Böen bis zu 30 kt

TAF: EDHK 070500Z 0706/0715 21010G20KT 9999 FEW015 TEMPO 0709/0715 23015G30KT

Wetterbeobachtungen und Prognosen von mehr als 4000 Flughäfen (METAR und TAF Bericht).

Die verfügbaren Stationen werden durch gelbe und rote Markierungen auf der Karte dargestellt.

Führen Sie die Maus auf sie, um den Namen der Station zu sehen.

Darauf klicken, um die Beobachtung von Wetterbeobachtungen und Prognosen zu sehen.

Um die Karte zu ändern : klicken Sie auf den grünen Tasten mit einem schwarzen Kreuz Zum Vergrößern, auf den grünen Button mit einem Gedankenstrich zu verkleinern, oder auf die grünen Pfeile für benachbarte Karten.


METAR-TAF: